sensor_id;sensor_type;location;lat;lon;timestamp;P1;durP1;ratioP1;P2;durP2;ratioP2
46941;SDS011;32676;52.630;4.896;2023-06-14T00:00:37;9.80;;;2.50;;
46941;SDS011;32676;52.630;4.896;2023-06-14T00:03:05;8.48;;;2.53;;
46941;SDS011;32676;52.630;4.896;2023-06-14T00:05:33;7.55;;;2.25;;
46941;SDS011;32676;52.630;4.896;2023-06-14T00:08:03;13.02;;;2.50;;
46941;SDS011;32676;52.630;4.896;2023-06-14T00:10:32;8.02;;;1.92;;
46941;SDS011;32676;52.630;4.896;2023-06-14T00:13:00;6.30;;;1.92;;
46941;SDS011;32676;52.630;4.896;2023-06-14T00:15:26;7.30;;;1.73;;
46941;SDS011;32676;52.630;4.896;2023-06-14T00:17:55;12.55;;;1.92;;
46941;SDS011;32676;52.630;4.896;2023-06-14T00:20:21;7.35;;;2.15;;
46941;SDS011;32676;52.630;4.896;2023-06-14T00:22:48;23.35;;;2.00;;
46941;SDS011;32676;52.630;4.896;2023-06-14T00:25:15;9.25;;;2.50;;
46941;SDS011;32676;52.630;4.896;2023-06-14T00:27:41;7.47;;;1.95;;
46941;SDS011;32676;52.630;4.896;2023-06-14T00:30:08;4.13;;;1.92;;
46941;SDS011;32676;52.630;4.896;2023-06-14T00:32:35;6.85;;;2.20;;
46941;SDS011;32676;52.630;4.896;2023-06-14T00:35:03;7.20;;;1.75;;
46941;SDS011;32676;52.630;4.896;2023-06-14T00:37:30;15.07;;;2.38;;
46941;SDS011;32676;52.630;4.896;2023-06-14T00:39:57;7.68;;;2.00;;
46941;SDS011;32676;52.630;4.896;2023-06-14T00:42:24;5.53;;;2.47;;
46941;SDS011;32676;52.630;4.896;2023-06-14T00:44:51;8.63;;;2.15;;
46941;SDS011;32676;52.630;4.896;2023-06-14T00:47:18;4.85;;;2.28;;
46941;SDS011;32676;52.630;4.896;2023-06-14T00:49:45;6.25;;;1.60;;
46941;SDS011;32676;52.630;4.896;2023-06-14T00:52:14;9.57;;;1.45;;
46941;SDS011;32676;52.630;4.896;2023-06-14T00:54:41;8.70;;;1.98;;
46941;SDS011;32676;52.630;4.896;2023-06-14T00:57:08;9.48;;;1.77;;
46941;SDS011;32676;52.630;4.896;2023-06-14T00:59:36;5.78;;;1.95;;
46941;SDS011;32676;52.630;4.896;2023-06-14T01:02:10;11.57;;;2.60;;
46941;SDS011;32676;52.630;4.896;2023-06-14T01:04:40;15.38;;;2.15;;
46941;SDS011;32676;52.630;4.896;2023-06-14T01:07:11;14.13;;;2.30;;
46941;SDS011;32676;52.630;4.896;2023-06-14T01:09:46;11.68;;;2.20;;
46941;SDS011;32676;52.630;4.896;2023-06-14T01:12:21;8.23;;;1.48;;
46941;SDS011;32676;52.630;4.896;2023-06-14T01:14:52;9.77;;;1.85;;
46941;SDS011;32676;52.630;4.896;2023-06-14T01:17:20;5.50;;;1.58;;
46941;SDS011;32676;52.630;4.896;2023-06-14T01:19:48;6.70;;;1.65;;
46941;SDS011;32676;52.630;4.896;2023-06-14T01:22:23;6.18;;;1.38;;
46941;SDS011;32676;52.630;4.896;2023-06-14T01:24:52;5.07;;;1.63;;
46941;SDS011;32676;52.630;4.896;2023-06-14T01:27:20;7.88;;;2.13;;
46941;SDS011;32676;52.630;4.896;2023-06-14T01:29:49;9.75;;;1.80;;
46941;SDS011;32676;52.630;4.896;2023-06-14T01:32:16;10.20;;;1.85;;
46941;SDS011;32676;52.630;4.896;2023-06-14T01:34:44;8.63;;;2.00;;
46941;SDS011;32676;52.630;4.896;2023-06-14T01:37:11;6.47;;;1.77;;
46941;SDS011;32676;52.630;4.896;2023-06-14T01:39:39;5.20;;;1.77;;
46941;SDS011;32676;52.630;4.896;2023-06-14T01:42:08;5.90;;;1.73;;
46941;SDS011;32676;52.630;4.896;2023-06-14T01:44:36;6.55;;;1.98;;
46941;SDS011;32676;52.630;4.896;2023-06-14T01:47:03;5.40;;;2.38;;
46941;SDS011;32676;52.630;4.896;2023-06-14T01:49:30;7.60;;;1.98;;
46941;SDS011;32676;52.630;4.896;2023-06-14T01:51:59;5.38;;;1.70;;
46941;SDS011;32676;52.630;4.896;2023-06-14T01:54:26;10.88;;;2.25;;
46941;SDS011;32676;52.630;4.896;2023-06-14T01:56:54;6.03;;;1.85;;
46941;SDS011;32676;52.630;4.896;2023-06-14T01:59:22;3.83;;;1.80;;
46941;SDS011;32676;52.630;4.896;2023-06-14T02:01:49;10.15;;;1.90;;
46941;SDS011;32676;52.630;4.896;2023-06-14T02:04:15;8.48;;;2.67;;
46941;SDS011;32676;52.630;4.896;2023-06-14T02:06:42;6.90;;;1.70;;
46941;SDS011;32676;52.630;4.896;2023-06-14T02:09:08;5.65;;;1.70;;
46941;SDS011;32676;52.630;4.896;2023-06-14T02:11:36;6.07;;;1.63;;
46941;SDS011;32676;52.630;4.896;2023-06-14T02:14:03;5.78;;;1.95;;
46941;SDS011;32676;52.630;4.896;2023-06-14T02:16:30;5.32;;;1.98;;
46941;SDS011;32676;52.630;4.896;2023-06-14T02:19:00;6.07;;;2.08;;
46941;SDS011;32676;52.630;4.896;2023-06-14T02:21:27;6.32;;;2.00;;
46941;SDS011;32676;52.630;4.896;2023-06-14T02:23:53;7.20;;;1.77;;
46941;SDS011;32676;52.630;4.896;2023-06-14T02:26:20;9.45;;;2.22;;
46941;SDS011;32676;52.630;4.896;2023-06-14T02:28:47;5.78;;;1.73;;
46941;SDS011;32676;52.630;4.896;2023-06-14T02:31:14;3.42;;;1.77;;
46941;SDS011;32676;52.630;4.896;2023-06-14T02:33:42;18.67;;;2.97;;
46941;SDS011;32676;52.630;4.896;2023-06-14T02:36:09;5.78;;;1.45;;
46941;SDS011;32676;52.630;4.896;2023-06-14T02:38:35;3.70;;;1.80;;
46941;SDS011;32676;52.630;4.896;2023-06-14T02:41:02;10.13;;;1.98;;
46941;SDS011;32676;52.630;4.896;2023-06-14T02:43:29;8.07;;;1.70;;
46941;SDS011;32676;52.630;4.896;2023-06-14T02:45:55;7.00;;;2.08;;
46941;SDS011;32676;52.630;4.896;2023-06-14T02:48:22;13.77;;;2.03;;
46941;SDS011;32676;52.630;4.896;2023-06-14T02:50:50;16.38;;;2.78;;
46941;SDS011;32676;52.630;4.896;2023-06-14T02:53:16;4.78;;;1.55;;
46941;SDS011;32676;52.630;4.896;2023-06-14T02:55:43;13.43;;;1.88;;
46941;SDS011;32676;52.630;4.896;2023-06-14T02:58:09;8.68;;;2.53;;
46941;SDS011;32676;52.630;4.896;2023-06-14T03:00:36;4.10;;;1.50;;
46941;SDS011;32676;52.630;4.896;2023-06-14T03:03:03;4.95;;;1.90;;
46941;SDS011;32676;52.630;4.896;2023-06-14T03:05:34;8.18;;;2.13;;
46941;SDS011;32676;52.630;4.896;2023-06-14T03:08:02;7.93;;;2.22;;
46941;SDS011;32676;52.630;4.896;2023-06-14T03:10:29;9.35;;;1.85;;
46941;SDS011;32676;52.630;4.896;2023-06-14T03:12:55;7.05;;;2.10;;
46941;SDS011;32676;52.630;4.896;2023-06-14T03:15:22;10.18;;;1.95;;
46941;SDS011;32676;52.630;4.896;2023-06-14T03:17:49;7.28;;;2.00;;
46941;SDS011;32676;52.630;4.896;2023-06-14T03:20:16;5.13;;;2.08;;
46941;SDS011;32676;52.630;4.896;2023-06-14T03:22:42;5.32;;;1.45;;
46941;SDS011;32676;52.630;4.896;2023-06-14T03:25:12;5.15;;;1.73;;
46941;SDS011;32676;52.630;4.896;2023-06-14T03:27:38;8.38;;;1.65;;
46941;SDS011;32676;52.630;4.896;2023-06-14T03:30:05;6.82;;;1.77;;
46941;SDS011;32676;52.630;4.896;2023-06-14T03:32:33;12.93;;;2.55;;
46941;SDS011;32676;52.630;4.896;2023-06-14T03:34:59;12.15;;;2.13;;
46941;SDS011;32676;52.630;4.896;2023-06-14T03:37:26;7.82;;;1.17;;
46941;SDS011;32676;52.630;4.896;2023-06-14T03:39:52;3.95;;;1.48;;
46941;SDS011;32676;52.630;4.896;2023-06-14T03:42:20;20.83;;;1.75;;
46941;SDS011;32676;52.630;4.896;2023-06-14T03:44:47;11.18;;;2.05;;
46941;SDS011;32676;52.630;4.896;2023-06-14T03:47:13;6.72;;;2.00;;
46941;SDS011;32676;52.630;4.896;2023-06-14T03:49:41;7.25;;;1.98;;
46941;SDS011;32676;52.630;4.896;2023-06-14T03:52:07;9.32;;;2.05;;
46941;SDS011;32676;52.630;4.896;2023-06-14T03:54:34;8.23;;;1.42;;
46941;SDS011;32676;52.630;4.896;2023-06-14T03:57:01;5.72;;;1.75;;
46941;SDS011;32676;52.630;4.896;2023-06-14T03:59:29;9.02;;;1.80;;
46941;SDS011;32676;52.630;4.896;2023-06-14T04:01:55;8.02;;;1.20;;
46941;SDS011;32676;52.630;4.896;2023-06-14T04:04:22;5.28;;;1.27;;
46941;SDS011;32676;52.630;4.896;2023-06-14T04:06:54;8.02;;;2.10;;
46941;SDS011;32676;52.630;4.896;2023-06-14T04:09:21;4.63;;;1.73;;
46941;SDS011;32676;52.630;4.896;2023-06-14T04:11:49;4.88;;;0.90;;
46941;SDS011;32676;52.630;4.896;2023-06-14T04:14:16;4.22;;;1.60;;
46941;SDS011;32676;52.630;4.896;2023-06-14T04:16:44;5.38;;;1.27;;
46941;SDS011;32676;52.630;4.896;2023-06-14T04:19:11;7.10;;;1.92;;
46941;SDS011;32676;52.630;4.896;2023-06-14T04:21:37;7.22;;;1.52;;
46941;SDS011;32676;52.630;4.896;2023-06-14T04:24:04;10.05;;;1.80;;
46941;SDS011;32676;52.630;4.896;2023-06-14T04:26:31;8.98;;;1.75;;
46941;SDS011;32676;52.630;4.896;2023-06-14T04:28:59;3.70;;;1.10;;
46941;SDS011;32676;52.630;4.896;2023-06-14T04:31:27;7.28;;;2.38;;
46941;SDS011;32676;52.630;4.896;2023-06-14T04:33:55;3.97;;;1.25;;
46941;SDS011;32676;52.630;4.896;2023-06-14T04:36:22;6.22;;;2.30;;
46941;SDS011;32676;52.630;4.896;2023-06-14T04:38:48;11.13;;;1.80;;
46941;SDS011;32676;52.630;4.896;2023-06-14T04:41:19;9.60;;;1.80;;
46941;SDS011;32676;52.630;4.896;2023-06-14T04:43:47;13.38;;;1.85;;
46941;SDS011;32676;52.630;4.896;2023-06-14T04:46:14;6.07;;;1.67;;
46941;SDS011;32676;52.630;4.896;2023-06-14T04:48:40;7.82;;;1.98;;
46941;SDS011;32676;52.630;4.896;2023-06-14T04:51:09;6.45;;;1.80;;
46941;SDS011;32676;52.630;4.896;2023-06-14T04:53:35;8.55;;;1.70;;
46941;SDS011;32676;52.630;4.896;2023-06-14T04:56:02;7.05;;;1.98;;
46941;SDS011;32676;52.630;4.896;2023-06-14T04:58:29;5.22;;;1.73;;
46941;SDS011;32676;52.630;4.896;2023-06-14T05:00:55;9.52;;;1.77;;
46941;SDS011;32676;52.630;4.896;2023-06-14T05:03:24;7.72;;;1.50;;
46941;SDS011;32676;52.630;4.896;2023-06-14T05:05:52;6.65;;;1.45;;
46941;SDS011;32676;52.630;4.896;2023-06-14T05:08:20;5.38;;;0.88;;
46941;SDS011;32676;52.630;4.896;2023-06-14T05:10:48;5.90;;;1.50;;
46941;SDS011;32676;52.630;4.896;2023-06-14T05:13:15;5.00;;;1.63;;
46941;SDS011;32676;52.630;4.896;2023-06-14T05:15:42;6.88;;;1.63;;
46941;SDS011;32676;52.630;4.896;2023-06-14T05:18:09;6.13;;;1.70;;
46941;SDS011;32676;52.630;4.896;2023-06-14T05:20:35;4.28;;;1.30;;
46941;SDS011;32676;52.630;4.896;2023-06-14T05:23:03;5.70;;;2.30;;
46941;SDS011;32676;52.630;4.896;2023-06-14T05:25:30;10.38;;;1.88;;
46941;SDS011;32676;52.630;4.896;2023-06-14T05:27:57;5.65;;;1.80;;
46941;SDS011;32676;52.630;4.896;2023-06-14T05:30:23;5.88;;;1.05;;
46941;SDS011;32676;52.630;4.896;2023-06-14T05:32:51;12.73;;;1.65;;
46941;SDS011;32676;52.630;4.896;2023-06-14T05:35:17;6.72;;;1.38;;
46941;SDS011;32676;52.630;4.896;2023-06-14T05:37:44;4.13;;;1.52;;
46941;SDS011;32676;52.630;4.896;2023-06-14T05:40:11;6.18;;;1.77;;
46941;SDS011;32676;52.630;4.896;2023-06-14T05:42:39;22.00;;;1.63;;
46941;SDS011;32676;52.630;4.896;2023-06-14T05:45:06;10.38;;;1.65;;
46941;SDS011;32676;52.630;4.896;2023-06-14T05:47:33;8.52;;;1.50;;
46941;SDS011;32676;52.630;4.896;2023-06-14T05:50:00;10.23;;;1.38;;
46941;SDS011;32676;52.630;4.896;2023-06-14T05:52:26;6.20;;;1.40;;
46941;SDS011;32676;52.630;4.896;2023-06-14T05:54:53;5.35;;;1.48;;
46941;SDS011;32676;52.630;4.896;2023-06-14T05:57:19;15.73;;;1.83;;
46941;SDS011;32676;52.630;4.896;2023-06-14T05:59:47;5.28;;;1.00;;
46941;SDS011;32676;52.630;4.896;2023-06-14T06:02:14;5.95;;;1.48;;
46941;SDS011;32676;52.630;4.896;2023-06-14T06:04:40;9.52;;;1.70;;
46941;SDS011;32676;52.630;4.896;2023-06-14T06:07:06;5.13;;;1.77;;
46941;SDS011;32676;52.630;4.896;2023-06-14T06:09:33;5.75;;;1.38;;
46941;SDS011;32676;52.630;4.896;2023-06-14T06:12:00;11.25;;;1.25;;
46941;SDS011;32676;52.630;4.896;2023-06-14T06:14:26;4.38;;;1.20;;
46941;SDS011;32676;52.630;4.896;2023-06-14T06:16:54;5.68;;;1.80;;
46941;SDS011;32676;52.630;4.896;2023-06-14T06:19:21;9.10;;;1.40;;
46941;SDS011;32676;52.630;4.896;2023-06-14T06:21:47;7.18;;;1.45;;
46941;SDS011;32676;52.630;4.896;2023-06-14T06:24:14;8.73;;;1.45;;
46941;SDS011;32676;52.630;4.896;2023-06-14T06:26:40;4.57;;;1.25;;
46941;SDS011;32676;52.630;4.896;2023-06-14T06:29:07;4.68;;;1.40;;
46941;SDS011;32676;52.630;4.896;2023-06-14T06:31:33;13.05;;;1.50;;
46941;SDS011;32676;52.630;4.896;2023-06-14T06:34:01;4.75;;;1.25;;
46941;SDS011;32676;52.630;4.896;2023-06-14T06:36:28;12.27;;;2.67;;
46941;SDS011;32676;52.630;4.896;2023-06-14T06:38:55;14.07;;;1.73;;
46941;SDS011;32676;52.630;4.896;2023-06-14T06:41:21;8.85;;;1.83;;
46941;SDS011;32676;52.630;4.896;2023-06-14T06:43:47;6.13;;;1.60;;
46941;SDS011;32676;52.630;4.896;2023-06-14T06:46:14;4.32;;;1.35;;
46941;SDS011;32676;52.630;4.896;2023-06-14T06:48:41;8.88;;;2.58;;
46941;SDS011;32676;52.630;4.896;2023-06-14T06:51:08;3.97;;;1.38;;
46941;SDS011;32676;52.630;4.896;2023-06-14T06:53:35;6.60;;;2.10;;
46941;SDS011;32676;52.630;4.896;2023-06-14T06:56:02;6.00;;;1.73;;
46941;SDS011;32676;52.630;4.896;2023-06-14T06:58:29;4.97;;;1.60;;
46941;SDS011;32676;52.630;4.896;2023-06-14T07:00:55;6.47;;;1.90;;
46941;SDS011;32676;52.630;4.896;2023-06-14T07:03:22;3.85;;;1.70;;
46941;SDS011;32676;52.630;4.896;2023-06-14T07:05:48;5.20;;;1.60;;
46941;SDS011;32676;52.630;4.896;2023-06-14T07:08:16;7.65;;;1.70;;
46941;SDS011;32676;52.630;4.896;2023-06-14T07:10:43;12.93;;;1.73;;
46941;SDS011;32676;52.630;4.896;2023-06-14T07:13:09;6.88;;;1.77;;
46941;SDS011;32676;52.630;4.896;2023-06-14T07:15:36;9.93;;;1.60;;
46941;SDS011;32676;52.630;4.896;2023-06-14T07:18:03;5.50;;;2.03;;
46941;SDS011;32676;52.630;4.896;2023-06-14T07:20:31;7.32;;;1.80;;
46941;SDS011;32676;52.630;4.896;2023-06-14T07:22:58;4.65;;;1.73;;
46941;SDS011;32676;52.630;4.896;2023-06-14T07:25:26;9.75;;;1.33;;
46941;SDS011;32676;52.630;4.896;2023-06-14T07:27:53;11.95;;;2.78;;
46941;SDS011;32676;52.630;4.896;2023-06-14T07:30:19;8.55;;;2.10;;
46941;SDS011;32676;52.630;4.896;2023-06-14T07:32:50;6.60;;;1.60;;
46941;SDS011;32676;52.630;4.896;2023-06-14T07:35:17;5.95;;;2.35;;
46941;SDS011;32676;52.630;4.896;2023-06-14T07:37:43;6.43;;;1.65;;
46941;SDS011;32676;52.630;4.896;2023-06-14T07:40:12;4.93;;;1.50;;
46941;SDS011;32676;52.630;4.896;2023-06-14T07:42:40;9.45;;;2.38;;
46941;SDS011;32676;52.630;4.896;2023-06-14T07:45:07;10.30;;;2.15;;
46941;SDS011;32676;52.630;4.896;2023-06-14T07:47:34;14.20;;;2.45;;
46941;SDS011;32676;52.630;4.896;2023-06-14T07:50:00;10.90;;;1.92;;
46941;SDS011;32676;52.630;4.896;2023-06-14T07:52:28;7.00;;;1.48;;
46941;SDS011;32676;52.630;4.896;2023-06-14T07:54:54;8.05;;;1.77;;
46941;SDS011;32676;52.630;4.896;2023-06-14T07:57:21;6.43;;;2.15;;
46941;SDS011;32676;52.630;4.896;2023-06-14T07:59:49;4.55;;;1.50;;
46941;SDS011;32676;52.630;4.896;2023-06-14T08:02:16;12.85;;;2.55;;
46941;SDS011;32676;52.630;4.896;2023-06-14T08:04:42;8.73;;;2.13;;
46941;SDS011;32676;52.630;4.896;2023-06-14T08:07:09;6.53;;;1.85;;
46941;SDS011;32676;52.630;4.896;2023-06-14T08:09:35;5.50;;;1.75;;
46941;SDS011;32676;52.630;4.896;2023-06-14T08:12:03;13.48;;;2.10;;
46941;SDS011;32676;52.630;4.896;2023-06-14T08:14:32;5.47;;;1.95;;
46941;SDS011;32676;52.630;4.896;2023-06-14T08:17:00;7.22;;;1.92;;
46941;SDS011;32676;52.630;4.896;2023-06-14T08:19:26;6.95;;;2.78;;
46941;SDS011;32676;52.630;4.896;2023-06-14T08:21:53;6.15;;;1.58;;
46941;SDS011;32676;52.630;4.896;2023-06-14T08:24:21;8.05;;;2.10;;
46941;SDS011;32676;52.630;4.896;2023-06-14T08:26:49;6.53;;;1.58;;
46941;SDS011;32676;52.630;4.896;2023-06-14T08:29:16;5.28;;;1.55;;
46941;SDS011;32676;52.630;4.896;2023-06-14T08:31:42;6.38;;;2.00;;
46941;SDS011;32676;52.630;4.896;2023-06-14T08:34:10;15.23;;;2.75;;
46941;SDS011;32676;52.630;4.896;2023-06-14T08:36:37;6.80;;;1.73;;
46941;SDS011;32676;52.630;4.896;2023-06-14T08:39:03;14.00;;;2.67;;
46941;SDS011;32676;52.630;4.896;2023-06-14T08:41:30;6.15;;;1.63;;
46941;SDS011;32676;52.630;4.896;2023-06-14T08:43:58;5.38;;;2.45;;
46941;SDS011;32676;52.630;4.896;2023-06-14T08:46:25;8.95;;;1.80;;
46941;SDS011;32676;52.630;4.896;2023-06-14T08:48:54;9.00;;;1.70;;
46941;SDS011;32676;52.630;4.896;2023-06-14T08:51:23;7.03;;;1.63;;
46941;SDS011;32676;52.630;4.896;2023-06-14T08:53:52;3.55;;;1.63;;
46941;SDS011;32676;52.630;4.896;2023-06-14T08:56:22;5.93;;;1.48;;
46941;SDS011;32676;52.630;4.896;2023-06-14T08:58:51;11.80;;;2.00;;
46941;SDS011;32676;52.630;4.896;2023-06-14T09:01:17;7.80;;;2.08;;
46941;SDS011;32676;52.630;4.896;2023-06-14T09:03:44;11.15;;;1.90;;
46941;SDS011;32676;52.630;4.896;2023-06-14T09:06:13;5.20;;;1.70;;
46941;SDS011;32676;52.630;4.896;2023-06-14T09:08:43;8.65;;;1.50;;
46941;SDS011;32676;52.630;4.896;2023-06-14T09:11:10;5.22;;;1.25;;
46941;SDS011;32676;52.630;4.896;2023-06-14T09:13:38;7.68;;;1.30;;
46941;SDS011;32676;52.630;4.896;2023-06-14T09:16:05;8.63;;;1.67;;
46941;SDS011;32676;52.630;4.896;2023-06-14T09:18:35;4.50;;;1.60;;
46941;SDS011;32676;52.630;4.896;2023-06-14T09:21:02;9.68;;;1.35;;
46941;SDS011;32676;52.630;4.896;2023-06-14T09:23:29;5.97;;;1.23;;
46941;SDS011;32676;52.630;4.896;2023-06-14T09:25:57;8.02;;;1.17;;
46941;SDS011;32676;52.630;4.896;2023-06-14T09:28:26;5.30;;;1.17;;
46941;SDS011;32676;52.630;4.896;2023-06-14T09:30:53;7.30;;;1.30;;
46941;SDS011;32676;52.630;4.896;2023-06-14T09:33:20;6.15;;;1.85;;
46941;SDS011;32676;52.630;4.896;2023-06-14T09:35:50;4.50;;;1.00;;
46941;SDS011;32676;52.630;4.896;2023-06-14T09:38:17;2.08;;;0.90;;
46941;SDS011;32676;52.630;4.896;2023-06-14T09:40:43;5.22;;;0.93;;
46941;SDS011;32676;52.630;4.896;2023-06-14T09:43:11;5.25;;;1.85;;
46941;SDS011;32676;52.630;4.896;2023-06-14T09:45:38;5.57;;;0.98;;
46941;SDS011;32676;52.630;4.896;2023-06-14T09:48:06;6.70;;;1.15;;
46941;SDS011;32676;52.630;4.896;2023-06-14T09:50:33;6.63;;;1.00;;
46941;SDS011;32676;52.630;4.896;2023-06-14T09:53:01;2.67;;;1.20;;
46941;SDS011;32676;52.630;4.896;2023-06-14T09:55:29;3.55;;;0.82;;
46941;SDS011;32676;52.630;4.896;2023-06-14T09:57:57;6.55;;;1.05;;
46941;SDS011;32676;52.630;4.896;2023-06-14T10:00:27;6.43;;;1.25;;
46941;SDS011;32676;52.630;4.896;2023-06-14T10:02:58;6.00;;;1.00;;
46941;SDS011;32676;52.630;4.896;2023-06-14T10:05:29;4.18;;;1.02;;
46941;SDS011;32676;52.630;4.896;2023-06-14T10:07:59;3.60;;;1.00;;
46941;SDS011;32676;52.630;4.896;2023-06-14T10:10:29;7.15;;;2.08;;
46941;SDS011;32676;52.630;4.896;2023-06-14T10:12:56;5.03;;;1.05;;
46941;SDS011;32676;52.630;4.896;2023-06-14T10:15:24;2.35;;;0.70;;
46941;SDS011;32676;52.630;4.896;2023-06-14T10:17:59;2.03;;;0.50;;
46941;SDS011;32676;52.630;4.896;2023-06-14T10:20:33;6.53;;;1.42;;
46941;SDS011;32676;52.630;4.896;2023-06-14T10:25:36;4.30;;;1.00;;
46941;SDS011;32676;52.630;4.896;2023-06-14T10:28:03;5.97;;;1.20;;
46941;SDS011;32676;52.630;4.896;2023-06-14T10:33:34;8.50;;;1.70;;
46941;SDS011;32676;52.630;4.896;2023-06-14T10:36:09;3.13;;;1.20;;
46941;SDS011;32676;52.630;4.896;2023-06-14T10:38:36;6.07;;;1.00;;
46941;SDS011;32676;52.630;4.896;2023-06-14T10:41:04;4.40;;;1.10;;
46941;SDS011;32676;52.630;4.896;2023-06-14T10:43:31;4.10;;;1.30;;
46941;SDS011;32676;52.630;4.896;2023-06-14T10:46:15;5.50;;;1.10;;
46941;SDS011;32676;52.630;4.896;2023-06-14T10:48:42;10.15;;;1.67;;
46941;SDS011;32676;52.630;4.896;2023-06-14T10:51:15;4.65;;;1.00;;
46941;SDS011;32676;52.630;4.896;2023-06-14T10:53:45;4.60;;;0.88;;
46941;SDS011;32676;52.630;4.896;2023-06-14T10:56:22;4.80;;;1.13;;
46941;SDS011;32676;52.630;4.896;2023-06-14T10:58:51;7.95;;;1.00;;
46941;SDS011;32676;52.630;4.896;2023-06-14T11:01:19;3.72;;;1.27;;
46941;SDS011;32676;52.630;4.896;2023-06-14T11:03:56;5.20;;;0.90;;
46941;SDS011;32676;52.630;4.896;2023-06-14T11:06:34;6.03;;;1.30;;
46941;SDS011;32676;52.630;4.896;2023-06-14T11:09:20;3.33;;;0.73;;
46941;SDS011;32676;52.630;4.896;2023-06-14T11:12:06;5.93;;;0.98;;
46941;SDS011;32676;52.630;4.896;2023-06-14T11:14:36;5.82;;;1.05;;
46941;SDS011;32676;52.630;4.896;2023-06-14T11:17:04;10.30;;;1.10;;
46941;SDS011;32676;52.630;4.896;2023-06-14T11:19:31;5.50;;;0.85;;
46941;SDS011;32676;52.630;4.896;2023-06-14T11:21:57;7.57;;;1.30;;
46941;SDS011;32676;52.630;4.896;2023-06-14T11:24:25;5.68;;;0.80;;
46941;SDS011;32676;52.630;4.896;2023-06-14T11:26:51;3.72;;;1.25;;
46941;SDS011;32676;52.630;4.896;2023-06-14T11:29:19;10.90;;;1.23;;
46941;SDS011;32676;52.630;4.896;2023-06-14T11:31:46;5.68;;;0.90;;
46941;SDS011;32676;52.630;4.896;2023-06-14T11:34:14;3.80;;;0.80;;
46941;SDS011;32676;52.630;4.896;2023-06-14T11:36:41;7.95;;;1.50;;
46941;SDS011;32676;52.630;4.896;2023-06-14T11:39:08;7.72;;;1.15;;
46941;SDS011;32676;52.630;4.896;2023-06-14T11:41:36;13.55;;;1.15;;
46941;SDS011;32676;52.630;4.896;2023-06-14T11:44:04;3.80;;;0.70;;
46941;SDS011;32676;52.630;4.896;2023-06-14T11:46:31;7.55;;;1.00;;
46941;SDS011;32676;52.630;4.896;2023-06-14T11:48:57;2.45;;;0.68;;
46941;SDS011;32676;52.630;4.896;2023-06-14T11:51:29;7.05;;;1.13;;
46941;SDS011;32676;52.630;4.896;2023-06-14T11:53:56;2.97;;;1.27;;
46941;SDS011;32676;52.630;4.896;2023-06-14T11:56:23;5.05;;;0.80;;
46941;SDS011;32676;52.630;4.896;2023-06-14T11:58:50;1.80;;;0.70;;
46941;SDS011;32676;52.630;4.896;2023-06-14T12:01:16;10.02;;;1.23;;
46941;SDS011;32676;52.630;4.896;2023-06-14T12:03:47;2.22;;;0.88;;
46941;SDS011;32676;52.630;4.896;2023-06-14T12:06:14;8.35;;;0.90;;
46941;SDS011;32676;52.630;4.896;2023-06-14T12:08:42;7.97;;;1.20;;
46941;SDS011;32676;52.630;4.896;2023-06-14T12:11:11;2.65;;;1.00;;
46941;SDS011;32676;52.630;4.896;2023-06-14T12:13:38;9.13;;;1.42;;
46941;SDS011;32676;52.630;4.896;2023-06-14T12:16:06;3.53;;;1.02;;
46941;SDS011;32676;52.630;4.896;2023-06-14T12:18:33;1.52;;;0.65;;
46941;SDS011;32676;52.630;4.896;2023-06-14T12:21:01;7.10;;;0.93;;
46941;SDS011;32676;52.630;4.896;2023-06-14T12:23:39;12.95;;;0.93;;
46941;SDS011;32676;52.630;4.896;2023-06-14T12:26:11;6.30;;;0.73;;
46941;SDS011;32676;52.630;4.896;2023-06-14T12:28:39;2.60;;;0.70;;
46941;SDS011;32676;52.630;4.896;2023-06-14T12:31:06;3.03;;;0.70;;
46941;SDS011;32676;52.630;4.896;2023-06-14T12:33:32;2.63;;;0.80;;
46941;SDS011;32676;52.630;4.896;2023-06-14T12:35:59;4.75;;;1.17;;
46941;SDS011;32676;52.630;4.896;2023-06-14T12:38:25;1.75;;;0.70;;
46941;SDS011;32676;52.630;4.896;2023-06-14T12:40:53;2.63;;;0.82;;
46941;SDS011;32676;52.630;4.896;2023-06-14T12:43:20;3.25;;;0.63;;
46941;SDS011;32676;52.630;4.896;2023-06-14T12:45:46;7.18;;;0.88;;
46941;SDS011;32676;52.630;4.896;2023-06-14T12:48:13;8.55;;;0.82;;
46941;SDS011;32676;52.630;4.896;2023-06-14T12:50:40;2.85;;;0.90;;
46941;SDS011;32676;52.630;4.896;2023-06-14T12:53:06;8.80;;;1.30;;
46941;SDS011;32676;52.630;4.896;2023-06-14T12:55:33;5.32;;;0.82;;
46941;SDS011;32676;52.630;4.896;2023-06-14T12:58:01;3.25;;;0.50;;
46941;SDS011;32676;52.630;4.896;2023-06-14T13:00:28;4.00;;;0.65;;
46941;SDS011;32676;52.630;4.896;2023-06-14T13:02:55;2.55;;;0.70;;
46941;SDS011;32676;52.630;4.896;2023-06-14T13:05:21;4.85;;;1.20;;
46941;SDS011;32676;52.630;4.896;2023-06-14T13:07:48;2.67;;;1.00;;
46941;SDS011;32676;52.630;4.896;2023-06-14T13:10:15;10.80;;;2.47;;
46941;SDS011;32676;52.630;4.896;2023-06-14T13:12:42;6.07;;;0.77;;
46941;SDS011;32676;52.630;4.896;2023-06-14T13:15:10;14.35;;;0.75;;
46941;SDS011;32676;52.630;4.896;2023-06-14T13:17:37;5.43;;;0.70;;
46941;SDS011;32676;52.630;4.896;2023-06-14T13:20:04;5.13;;;0.65;;
46941;SDS011;32676;52.630;4.896;2023-06-14T13:22:31;5.20;;;0.93;;
46941;SDS011;32676;52.630;4.896;2023-06-14T13:24:58;7.15;;;0.70;;
46941;SDS011;32676;52.630;4.896;2023-06-14T13:27:25;3.83;;;0.50;;
46941;SDS011;32676;52.630;4.896;2023-06-14T13:29:51;6.15;;;0.68;;
46941;SDS011;32676;52.630;4.896;2023-06-14T13:32:20;5.45;;;0.77;;
46941;SDS011;32676;52.630;4.896;2023-06-14T13:34:47;6.63;;;0.80;;
46941;SDS011;32676;52.630;4.896;2023-06-14T13:37:13;3.42;;;0.73;;
46941;SDS011;32676;52.630;4.896;2023-06-14T13:39:40;4.88;;;0.50;;
46941;SDS011;32676;52.630;4.896;2023-06-14T13:42:07;4.40;;;0.73;;
46941;SDS011;32676;52.630;4.896;2023-06-14T13:44:33;1.10;;;0.60;;
46941;SDS011;32676;52.630;4.896;2023-06-14T13:47:00;9.30;;;0.73;;
46941;SDS011;32676;52.630;4.896;2023-06-14T13:49:27;6.60;;;0.80;;
46941;SDS011;32676;52.630;4.896;2023-06-14T13:51:54;4.65;;;0.82;;
46941;SDS011;32676;52.630;4.896;2023-06-14T13:54:21;4.95;;;0.50;;
46941;SDS011;32676;52.630;4.896;2023-06-14T13:56:48;1.27;;;0.52;;
46941;SDS011;32676;52.630;4.896;2023-06-14T13:59:14;4.95;;;0.60;;
46941;SDS011;32676;52.630;4.896;2023-06-14T14:01:41;6.50;;;0.85;;
46941;SDS011;32676;52.630;4.896;2023-06-14T14:04:07;7.05;;;0.85;;
46941;SDS011;32676;52.630;4.896;2023-06-14T14:06:35;5.00;;;0.70;;
46941;SDS011;32676;52.630;4.896;2023-06-14T14:09:02;4.25;;;0.80;;
46941;SDS011;32676;52.630;4.896;2023-06-14T14:11:29;4.57;;;0.70;;
46941;SDS011;32676;52.630;4.896;2023-06-14T14:13:57;7.05;;;0.63;;
46941;SDS011;32676;52.630;4.896;2023-06-14T14:16:23;12.88;;;1.05;;
46941;SDS011;32676;52.630;4.896;2023-06-14T14:18:50;11.23;;;0.80;;
46941;SDS011;32676;52.630;4.896;2023-06-14T14:21:16;3.50;;;0.80;;
46941;SDS011;32676;52.630;4.896;2023-06-14T14:23:44;4.55;;;0.82;;
46941;SDS011;32676;52.630;4.896;2023-06-14T14:26:11;2.75;;;0.70;;
46941;SDS011;32676;52.630;4.896;2023-06-14T14:28:37;3.05;;;1.08;;
46941;SDS011;32676;52.630;4.896;2023-06-14T14:31:04;11.05;;;0.88;;
46941;SDS011;32676;52.630;4.896;2023-06-14T14:33:30;4.63;;;0.60;;
46941;SDS011;32676;52.630;4.896;2023-06-14T14:35:56;9.80;;;1.17;;
46941;SDS011;32676;52.630;4.896;2023-06-14T14:38:24;2.08;;;0.40;;
46941;SDS011;32676;52.630;4.896;2023-06-14T14:40:52;5.82;;;0.70;;
46941;SDS011;32676;52.630;4.896;2023-06-14T14:43:19;6.90;;;0.90;;
46941;SDS011;32676;52.630;4.896;2023-06-14T14:45:45;3.45;;;0.70;;
46941;SDS011;32676;52.630;4.896;2023-06-14T14:48:12;6.47;;;0.90;;
46941;SDS011;32676;52.630;4.896;2023-06-14T14:50:38;4.35;;;0.70;;
46941;SDS011;32676;52.630;4.896;2023-06-14T14:53:05;5.05;;;1.10;;